Time;durP1;ratioP1;P1;durP2;ratioP2;P2;SDS_P1;SDS_P2;PMS_P1;PMS_P2;Temp;Humidity;BMP_temperature;BMP_pressure;BME280_temperature;BME280_humidity;BME280_pressure;Samples;Min_cycle;Max_cycle;Signal;HPM_P1;HPM_P2
2022/09/05 00:02:21;;;;;;;4.10;2.95;;;;;;;7.58;66.25;99914.00;4909463;28;20056;-78
2022/09/05 00:05:10;;;;;;;8.07;3.22;;;;;;;7.60;66.96;99918.28;4936958;28;20438;-76
2022/09/05 00:08:16;;;;;;;7.38;3.40;;;;;;;7.62;66.97;99911.09;5000820;28;20052;-78
2022/09/05 00:10:44;;;;;;;6.57;3.50;;;;;;;7.52;66.48;99914.34;5016893;28;20048;-77
2022/09/05 00:13:23;;;;;;;5.90;4.05;;;;;;;7.52;67.16;99919.66;5003961;28;20044;-76
2022/09/05 00:15:54;;;;;;;5.43;3.03;;;;;;;7.48;67.22;99921.59;5015613;28;20072;-78
2022/09/05 00:18:39;;;;;;;7.50;3.90;;;;;;;7.46;67.66;99914.66;5005033;28;20502;-77
2022/09/05 00:21:32;;;;;;;8.45;3.58;;;;;;;7.48;67.29;99915.44;5035668;28;20449;-77
2022/09/05 00:24:18;;;;;;;4.65;3.25;;;;;;;7.49;67.05;99909.19;5035552;28;20048;-77
2022/09/05 00:26:50;;;;;;;6.10;4.10;;;;;;;7.43;67.39;99910.41;5016972;28;20506;-77
2022/09/05 00:30:06;;;;;;;9.65;3.58;;;;;;;7.45;67.92;99905.03;5016712;28;20047;-70
2022/09/05 00:32:39;;;;;;;;;;;;;;;7.50;67.72;99909.13;4953308;28;20855;-69
2022/09/05 00:35:33;;;;;;;6.57;2.92;;;;;;;7.37;68.46;99904.56;4937331;28;20426;-74
2022/09/05 00:38:11;;;;;;;9.35;3.17;;;;;;;7.35;68.50;99909.94;4880267;29;20127;-72
2022/09/05 00:40:56;;;;;;;8.30;3.75;;;;;;;7.28;68.78;99897.97;4896487;29;20486;-70
2022/09/05 00:43:23;;;;;;;;;;;;;;;7.35;69.00;99891.38;4867032;29;20080;-74
2022/09/05 00:46:13;;;;;;;4.97;3.25;;;;;;;7.27;69.21;99904.19;4883268;29;20406;-69
2022/09/05 00:49:09;;;;;;;7.60;3.88;;;;;;;7.23;69.00;99897.34;4895666;29;20056;-73
2022/09/05 00:51:40;;;;;;;6.57;3.15;;;;;;;7.15;68.80;99895.09;4888685;29;20562;-72
2022/09/05 00:54:40;;;;;;;6.50;3.20;;;;;;;7.22;68.94;99896.47;4885588;28;20047;-71
2022/09/05 00:57:38;;;;;;;8.50;4.05;;;;;;;7.20;68.48;99897.53;4850961;29;20798;-72
2022/09/05 01:00:09;;;;;;;7.00;3.10;;;;;;;7.10;68.38;99897.16;4884933;29;20422;-75
2022/09/05 01:02:40;;;;;;;6.63;3.45;;;;;;;7.11;68.62;99887.41;4884888;29;20786;-75
2022/09/05 01:05:38;;;;;;;7.43;3.40;;;;;;;7.12;68.77;99883.81;4889314;29;20556;-75
2022/09/05 01:08:25;;;;;;;16.35;4.00;;;;;;;7.12;68.44;99873.19;4881368;29;20590;-74
2022/09/05 01:10:49;;;;;;;7.35;3.35;;;;;;;7.05;68.78;99882.44;4880729;29;20526;-74
2022/09/05 01:13:48;;;;;;;6.05;3.88;;;;;;;7.09;68.97;99884.00;4892176;29;20518;-74
2022/09/05 01:16:19;;;;;;;4.72;3.15;;;;;;;7.06;68.83;99886.78;4916963;29;20402;-76
2022/09/05 01:19:04;;;;;;;4.90;3.22;;;;;;;7.05;69.37;99872.69;4925867;28;20079;-74
2022/09/05 01:21:29;;;;;;;6.20;3.22;;;;;;;7.00;69.38;99876.53;4934410;28;20074;-71
2022/09/05 01:24:22;;;;;;;10.98;4.88;;;;;;;7.03;69.07;99884.28;4918976;28;20089;-72
2022/09/05 01:27:25;;;;;;;6.03;3.67;;;;;;;7.05;68.85;99880.63;4937935;28;20065;-72
2022/09/05 01:29:57;;;;;;;5.53;3.63;;;;;;;6.98;69.70;99881.06;4937755;28;20062;-72
2022/09/05 01:32:41;;;;;;;5.45;3.33;;;;;;;6.93;69.74;99875.97;4938217;28;20518;-74
2022/09/05 01:35:41;;;;;;;6.25;3.67;;;;;;;7.00;70.08;99879.19;5019110;28;20052;-68
2022/09/05 01:38:25;;;;;;;4.57;3.28;;;;;;;6.93;69.56;99882.13;4937477;28;20050;-78
2022/09/05 01:41:30;;;;;;;3.70;2.95;;;;;;;6.97;69.18;99869.59;4921355;28;20046;-76
2022/09/05 01:44:06;;;;;;;4.30;2.92;;;;;;;6.95;69.21;99876.75;4935237;28;20047;-72
2022/09/05 01:46:54;;;;;;;7.03;3.22;;;;;;;6.86;69.91;99867.50;4921631;28;20101;-73
2022/09/05 01:49:24;;;;;;;4.53;3.20;;;;;;;6.87;69.69;99871.88;4921476;28;20406;-77
2022/09/05 01:52:05;;;;;;;4.07;2.88;;;;;;;6.89;69.86;99872.63;4936949;28;20897;-68
2022/09/05 01:54:32;;;;;;;4.97;3.50;;;;;;;6.81;69.53;99861.59;4933308;28;20813;-70
2022/09/05 01:57:09;;;;;;;3.55;2.72;;;;;;;6.82;70.59;99863.28;4942102;28;20149;-76
2022/09/05 01:59:37;;;;;;;3.85;3.00;;;;;;;6.78;70.01;99863.53;4943966;28;20081;-72
2022/09/05 02:02:12;;;;;;;3.65;2.92;;;;;;;6.79;70.22;99866.09;4938685;28;20498;-73
2022/09/05 02:04:40;;;;;;;5.53;2.78;;;;;;;6.76;70.56;99860.13;4921328;28;20137;-73
2022/09/05 02:07:20;;;;;;;7.20;2.63;;;;;;;6.74;70.53;99862.00;4937040;28;20058;-73
2022/09/05 02:10:21;;;;;;;4.30;2.75;;;;;;;6.77;70.11;99865.31;4921196;28;20043;-71
2022/09/05 02:12:53;;;;;;;3.92;2.88;;;;;;;6.69;70.47;99870.16;4919236;29;20502;-71
2022/09/05 02:15:24;;;;;;;5.60;3.13;;;;;;;6.72;71.07;99874.47;5004538;28;20464;-70
2022/09/05 02:17:56;;;;;;;3.10;2.30;;;;;;;6.73;70.34;99881.47;4999965;28;20565;-72
2022/09/05 02:20:30;;;;;;;4.88;2.80;;;;;;;6.73;71.24;99882.34;5017611;28;20411;-71
2022/09/05 02:22:55;;;;;;;4.05;3.00;;;;;;;6.66;70.63;99878.25;5019835;28;20445;-73
2022/09/05 02:25:26;;;;;;;2.65;2.28;;;;;;;6.66;71.06;99886.22;5015988;28;20408;-73
2022/09/05 02:28:09;;;;;;;5.57;3.40;;;;;;;6.69;70.96;99885.22;4992777;28;20499;-71
2022/09/05 02:30:41;;;;;;;2.05;1.70;;;;;;;6.69;71.43;99883.41;4994425;28;20084;-70
2022/09/05 02:33:31;;;;;;;3.70;3.03;;;;;;;6.77;71.61;99883.88;4995974;28;20036;-71
2022/09/05 02:36:21;;;;;;;3.47;2.63;;;;;;;6.78;71.26;99884.72;5021504;28;20549;-71
2022/09/05 02:38:54;;;;;;;4.88;2.75;;;;;;;6.80;71.04;99889.00;5029794;28;20037;-72
2022/09/05 02:41:36;;;;;;;3.67;2.67;;;;;;;6.85;71.66;99887.00;4974575;28;20036;-72
2022/09/05 02:44:24;;;;;;;2.80;2.35;;;;;;;6.96;70.78;99877.63;5018638;28;20041;-71
2022/09/05 02:47:21;;;;;;;7.50;3.05;;;;;;;7.02;70.61;99883.44;5000278;28;20048;-71
2022/09/05 02:50:40;;;;;;;3.50;2.20;;;;;;;7.04;70.92;99883.38;4974844;28;20121;-71
2022/09/05 02:53:09;;;;;;;3.55;2.42;;;;;;;7.01;70.89;99880.88;4896653;29;20144;-71
2022/09/05 02:55:56;;;;;;;3.75;2.90;;;;;;;7.01;71.59;99891.47;4896661;29;20051;-73
2022/09/05 02:58:29;;;;;;;5.10;3.00;;;;;;;7.09;71.68;99884.84;4888063;29;20460;-72
2022/09/05 03:01:13;;;;;;;4.47;2.23;;;;;;;7.21;71.11;99889.50;4873246;29;20576;-73
2022/09/05 03:03:49;;;;;;;2.45;1.88;;;;;;;7.38;70.04;99891.22;4864424;29;20296;-73
2022/09/05 03:06:31;;;;;;;4.03;2.38;;;;;;;7.46;69.41;99894.31;4873561;29;20076;-71
2022/09/05 03:09:03;;;;;;;3.13;2.03;;;;;;;7.52;69.26;99880.72;4870199;29;20038;-74
2022/09/05 03:11:47;;;;;;;3.10;2.42;;;;;;;7.55;68.92;99891.16;4895444;29;20058;-74
2022/09/05 03:14:20;;;;;;;3.05;2.50;;;;;;;7.61;69.43;99888.16;4881479;29;20051;-70
2022/09/05 03:17:26;;;;;;;3.45;2.70;;;;;;;7.71;69.03;99887.66;4897620;29;20055;-69
2022/09/05 03:20:12;;;;;;;2.88;2.22;;;;;;;7.73;68.74;99891.06;4898097;29;20081;-71
2022/09/05 03:23:09;;;;;;;4.95;2.38;;;;;;;7.81;68.95;99888.84;4898119;29;20577;-72
2022/09/05 03:25:37;;;;;;;4.05;1.83;;;;;;;7.81;68.88;99887.03;4918207;28;20048;-70
2022/09/05 03:28:33;;;;;;;5.53;2.60;;;;;;;7.92;68.43;99884.63;5012498;28;20456;-71
2022/09/05 03:31:23;;;;;;;7.10;2.83;;;;;;;7.93;68.66;99891.66;5011110;28;20048;-70
2022/09/05 03:34:19;;;;;;;3.63;2.28;;;;;;;8.01;68.12;99889.41;5021337;28;20139;-72
2022/09/05 03:36:55;;;;;;;6.38;3.33;;;;;;;8.07;67.74;99885.56;5037145;28;20429;-72
2022/09/05 03:39:35;;;;;;;7.32;2.67;;;;;;;8.11;67.65;99878.28;5039830;28;20067;-65
2022/09/05 03:42:19;;;;;;;2.80;2.35;;;;;;;8.13;67.54;99884.34;5021902;28;20097;-65
2022/09/05 03:44:47;;;;;;;2.90;2.65;;;;;;;8.13;67.31;99879.03;5021730;28;20487;-66
2022/09/05 03:47:36;;;;;;;6.32;2.58;;;;;;;8.17;67.93;99885.88;5038900;28;20476;-67
2022/09/05 03:50:05;;;;;;;4.65;2.85;;;;;;;8.20;67.34;99880.41;5037943;28;20491;-66
2022/09/05 03:52:48;;;;;;;5.03;2.70;;;;;;;8.28;67.48;99878.16;4986588;28;20044;-72
2022/09/05 03:55:23;;;;;;;6.70;3.50;;;;;;;8.29;66.74;99880.72;4998737;28;20056;-65
2022/09/05 03:57:51;;;;;;;3.20;2.65;;;;;;;8.27;67.22;99879.97;4998043;28;20083;-67
2022/09/05 04:00:21;;;;;;;6.22;4.47;;;;;;;8.33;67.31;99886.75;5016156;28;20053;-66
2022/09/05 04:03:23;;;;;;;8.43;4.80;;;;;;;8.45;66.52;99882.53;4996974;28;20412;-67
2022/09/05 04:05:57;;;;;;;7.32;4.25;;;;;;;8.46;66.71;99882.44;5009850;28;20071;-66
2022/09/05 04:08:40;;;;;;;12.18;6.07;;;;;;;8.52;66.59;99890.03;5015314;28;20450;-65
2022/09/05 04:11:15;;;;;;;10.27;6.32;;;;;;;8.58;66.53;99891.47;4997444;28;20423;-66
2022/09/05 04:13:59;;;;;;;9.35;5.60;;;;;;;8.64;65.96;99885.81;4964678;28;20389;-66
2022/09/05 04:16:48;;;;;;;9.05;4.63;;;;;;;8.75;65.71;99886.00;5014384;28;20045;-65
2022/09/05 04:19:28;;;;;;;10.07;4.60;;;;;;;8.76;66.08;99890.38;4997198;28;20048;-65
2022/09/05 04:22:01;;;;;;;7.20;4.80;;;;;;;8.77;65.96;99885.94;4997015;28;20041;-67
2022/09/05 04:24:44;;;;;;;8.80;3.78;;;;;;;8.86;65.67;99890.69;5012288;28;20452;-65
2022/09/05 04:27:41;;;;;;;4.28;2.90;;;;;;;8.91;65.74;99877.97;5016393;28;20520;-64
2022/09/05 04:30:48;;;;;;;6.35;3.78;;;;;;;8.99;65.08;99873.03;5016728;28;20048;-64
2022/09/05 04:33:36;;;;;;;4.60;3.83;;;;;;;9.03;64.96;99883.38;5029238;28;20052;-65
2022/09/05 04:36:26;;;;;;;4.75;3.83;;;;;;;9.07;64.96;99874.28;5000564;28;20044;-74
2022/09/05 04:39:18;;;;;;;9.30;5.78;;;;;;;9.07;64.92;99876.06;5035207;28;20056;-75
2022/09/05 04:42:11;;;;;;;7.78;4.38;;;;;;;9.08;65.00;99875.97;5017329;28;20043;-74
2022/09/05 04:44:43;;;;;;;7.85;4.22;;;;;;;9.07;64.91;99873.41;5017861;28;20071;-74
2022/09/05 04:47:14;;;;;;;7.00;4.63;;;;;;;9.12;65.25;99871.34;5035458;28;20052;-73
2022/09/05 04:49:43;;;;;;;6.03;3.97;;;;;;;9.14;64.85;99881.88;5017779;28;20121;-73
2022/09/05 04:52:47;;;;;;;5.22;3.88;;;;;;;9.25;65.05;99876.75;5017572;28;20048;-72
2022/09/05 04:55:43;;;;;;;6.50;4.05;;;;;;;9.33;64.54;99879.78;4972831;28;20050;-67
2022/09/05 04:58:28;;;;;;;5.68;3.85;;;;;;;9.40;64.42;99876.63;4973994;28;20060;-66
2022/09/05 05:00:58;;;;;;;8.75;4.70;;;;;;;9.45;64.29;99874.56;4929245;28;20050;-66
2022/09/05 05:03:32;;;;;;;6.32;5.00;;;;;;;9.60;64.13;99875.38;4977119;28;20046;-67
2022/09/05 05:06:08;;;;;;;7.57;4.37;;;;;;;9.84;63.52;99871.13;4959911;28;20196;-67
2022/09/05 05:09:00;;;;;;;6.13;4.10;;;;;;;10.09;62.57;99875.72;4976429;28;20048;-68
2022/09/05 05:11:50;;;;;;;8.70;5.15;;;;;;;10.48;62.09;99866.91;4960576;28;20073;-68
2022/09/05 05:14:41;;;;;;;9.50;4.78;;;;;;;10.88;61.06;99877.53;4960610;28;20042;-65
2022/09/05 05:17:29;;;;;;;10.25;5.05;;;;;;;11.30;59.36;99873.66;4976449;28;20544;-65
2022/09/05 05:20:27;;;;;;;7.50;4.50;;;;;;;11.60;58.80;99878.66;4976508;28;20200;-66
2022/09/05 05:23:04;;;;;;;8.88;5.75;;;;;;;11.69;57.56;99875.31;4937350;28;20184;-65
2022/09/05 05:25:39;;;;;;;9.95;4.90;;;;;;;11.64;57.37;99874.78;4937729;28;20568;-67
2022/09/05 05:28:12;;;;;;;7.32;4.55;;;;;;;11.63;57.50;99878.41;4938081;28;20058;-66
2022/09/05 05:30:39;;;;;;;9.95;4.32;;;;;;;11.51;57.57;99880.13;4919438;29;20051;-65
2022/09/05 05:33:22;;;;;;;9.68;4.80;;;;;;;11.54;57.35;99879.06;4936508;28;20062;-66
2022/09/05 05:35:48;;;;;;;5.38;3.92;;;;;;;11.31;58.11;99879.84;4937655;28;20521;-66
2022/09/05 05:38:15;;;;;;;5.82;4.18;;;;;;;11.24;58.47;99877.63;4921569;28;20052;-66
2022/09/05 05:40:50;;;;;;;9.40;3.95;;;;;;;11.24;58.65;99888.31;4939563;28;20580;-66
2022/09/05 05:43:33;;;;;;;8.57;4.57;;;;;;;11.25;59.20;99883.81;4910854;28;20047;-67
2022/09/05 05:45:59;;;;;;;10.13;4.72;;;;;;;11.24;59.31;99888.31;4937286;28;20069;-66
2022/09/05 05:48:32;;;;;;;5.72;4.43;;;;;;;11.31;59.10;99883.38;4921221;28;20047;-74
2022/09/05 05:51:14;;;;;;;7.40;4.30;;;;;;;11.34;58.79;99876.97;4937410;28;20162;-72
2022/09/05 05:53:58;;;;;;;8.35;4.63;;;;;;;11.43;59.09;99884.31;4922116;28;20059;-74
2022/09/05 05:56:22;;;;;;;7.85;5.28;;;;;;;11.29;59.02;99886.16;4954455;28;20078;-73
2022/09/05 05:58:50;;;;;;;10.80;5.25;;;;;;;11.32;58.23;99892.22;4949973;28;20053;-73
2022/09/05 06:01:30;;;;;;;6.32;4.75;;;;;;;11.43;58.58;99892.34;4967929;28;20040;-73
2022/09/05 06:04:04;;;;;;;9.10;4.55;;;;;;;11.47;58.43;99900.03;5023853;28;20051;-73
2022/09/05 06:06:59;;;;;;;10.05;4.72;;;;;;;11.66;57.97;99888.88;5058283;28;20054;-73
2022/09/05 06:09:49;;;;;;;4.75;4.15;;;;;;;11.77;58.08;99891.66;5057610;28;20043;-73
2022/09/05 06:12:52;;;;;;;7.38;4.53;;;;;;;11.79;57.46;99900.41;5040412;28;20054;-73
2022/09/05 06:15:48;;;;;;;7.80;4.75;;;;;;;11.81;57.73;99895.81;5040376;28;20054;-73
2022/09/05 06:18:43;;;;;;;6.85;4.82;;;;;;;11.91;57.29;99899.53;5040484;28;20529;-72
2022/09/05 06:21:27;;;;;;;6.65;3.95;;;;;;;12.11;57.38;99899.88;5039486;28;20074;-66
2022/09/05 06:24:23;;;;;;;6.82;4.10;;;;;;;12.28;56.86;99895.00;5022851;28;20501;-66
2022/09/05 06:27:11;;;;;;;7.50;4.53;;;;;;;12.33;56.19;99905.34;5039229;28;20062;-67
2022/09/05 06:29:47;;;;;;;7.00;4.18;;;;;;;12.40;56.12;99900.41;4985659;28;20081;-72
2022/09/05 06:32:25;;;;;;;7.70;4.47;;;;;;;12.55;56.08;99901.91;4957436;28;20050;-72
2022/09/05 06:35:27;;;;;;;7.13;5.03;;;;;;;12.87;55.92;99894.94;4956894;28;20042;-72
2022/09/05 06:38:32;;;;;;;6.80;4.20;;;;;;;13.23;54.70;99896.63;4956569;28;20057;-71
2022/09/05 06:41:18;;;;;;;8.93;4.97;;;;;;;13.56;53.27;99898.47;4956271;28;20096;-72
2022/09/05 06:44:12;;;;;;;6.93;4.18;;;;;;;13.84;52.89;99891.75;4939584;28;20136;-69
2022/09/05 06:46:44;;;;;;;5.63;4.38;;;;;;;14.22;52.46;99898.50;4960995;28;20065;-68
2022/09/05 06:49:41;;;;;;;6.05;4.60;;;;;;;14.70;50.80;99896.25;4965140;28;20558;-66
2022/09/05 06:52:31;;;;;;;6.53;4.75;;;;;;;14.87;50.04;99893.88;4954497;28;20097;-68
2022/09/05 06:55:17;;;;;;;7.88;4.30;;;;;;;14.77;49.48;99892.94;4963469;28;20050;-66
2022/09/05 06:57:56;;;;;;;6.03;4.28;;;;;;;14.80;49.83;99898.03;4975880;28;20497;-67
2022/09/05 07:00:31;;;;;;;5.75;3.90;;;;;;;14.60;49.95;99898.00;4974987;28;20422;-65
2022/09/05 07:03:14;;;;;;;8.57;5.00;;;;;;;14.52;50.30;99902.22;4975978;28;20060;-66
2022/09/05 07:05:57;;;;;;;12.65;4.78;;;;;;;14.37;50.51;99899.91;4959120;28;20057;-66
2022/09/05 07:08:34;;;;;;;7.55;4.13;;;;;;;14.34;50.61;99894.78;4994415;28;20041;-68
2022/09/05 07:11:22;;;;;;;7.00;4.57;;;;;;;14.32;50.79;99891.41;4961783;28;20099;-64
2022/09/05 07:14:09;;;;;;;5.70;4.25;;;;;;;14.45;50.40;99902.81;4977370;28;20127;-67
2022/09/05 07:16:43;;;;;;;4.55;3.97;;;;;;;14.60;50.41;99896.19;4978068;28;20463;-66
2022/09/05 07:19:25;;;;;;;10.20;4.38;;;;;;;14.89;49.80;99897.28;4961791;28;20037;-67
2022/09/05 07:21:56;;;;;;;4.15;3.75;;;;;;;14.80;49.63;99889.97;4961019;28;20073;-67
2022/09/05 07:24:24;;;;;;;9.18;4.38;;;;;;;14.67;49.67;99886.63;4961892;28;20049;-67
2022/09/05 07:26:51;;;;;;;6.30;3.83;;;;;;;14.49;49.66;99894.41;4961249;28;20069;-67
2022/09/05 07:29:20;;;;;;;9.18;3.88;;;;;;;14.44;50.12;99895.78;5040807;28;20044;-66
2022/09/05 07:31:53;;;;;;;11.52;4.13;;;;;;;14.55;50.44;99892.19;5021618;28;20043;-66
2022/09/05 07:34:21;;;;;;;8.65;3.72;;;;;;;14.48;49.85;99890.00;5038296;28;20047;-66
2022/09/05 07:36:51;;;;;;;17.05;4.15;;;;;;;14.47;49.98;99893.69;5040521;28;20502;-66
2022/09/05 07:39:21;;;;;;;7.13;4.43;;;;;;;14.59;50.23;99897.16;5028612;28;20044;-66
2022/09/05 07:41:52;;;;;;;4.50;3.97;;;;;;;14.79;49.35;99882.91;5037631;28;20066;-67
2022/09/05 07:44:22;;;;;;;7.07;4.43;;;;;;;15.07;48.57;99881.41;5037586;28;20039;-68
2022/09/05 07:46:55;;;;;;;7.78;4.88;;;;;;;15.22;48.28;99887.28;5056942;28;20047;-73
2022/09/05 07:49:23;;;;;;;5.57;3.85;;;;;;;15.21;48.05;99888.28;5021057;28;20055;-73
2022/09/05 07:52:06;;;;;;;6.63;3.92;;;;;;;15.11;48.43;99890.06;5037724;28;20040;-73
2022/09/05 07:54:39;;;;;;;9.98;3.78;;;;;;;14.71;48.94;99881.84;5021034;28;20035;-74
2022/09/05 07:57:08;;;;;;;3.85;3.42;;;;;;;14.39;49.35;99884.53;5056533;28;20043;-74
2022/09/05 07:59:35;;;;;;;8.27;4.28;;;;;;;14.22;49.81;99885.91;5037627;28;20158;-74
2022/09/05 08:02:01;;;;;;;6.50;3.72;;;;;;;14.22;50.20;99879.75;5037442;28;20525;-73
2022/09/05 08:04:30;;;;;;;6.68;3.40;;;;;;;14.35;50.11;99885.75;5020507;28;20043;-73
2022/09/05 08:06:58;;;;;;;6.35;3.25;;;;;;;14.49;50.00;99888.19;5056080;28;20086;-67
2022/09/05 08:09:36;;;;;;;6.25;3.40;;;;;;;14.71;49.45;99896.13;5045159;28;20139;-65
2022/09/05 08:12:11;;;;;;;6.68;3.28;;;;;;;14.71;48.97;99888.06;5006148;28;20040;-69
2022/09/05 08:14:49;;;;;;;4.47;3.47;;;;;;;14.70;49.22;99889.06;5038154;28;20044;-68
2022/09/05 08:17:20;;;;;;;4.78;3.03;;;;;;;14.53;48.67;99882.44;5023781;28;20402;-67
2022/09/05 08:19:45;;;;;;;4.57;3.00;;;;;;;14.35;48.98;99875.03;5061656;28;20396;-68
2022/09/05 08:22:20;;;;;;;7.13;3.47;;;;;;;14.30;49.37;99879.94;5056914;28;20461;-66
2022/09/05 08:24:57;;;;;;;5.30;3.35;;;;;;;14.33;49.47;99872.50;5055290;28;20059;-65
2022/09/05 08:28:01;;;;;;;11.32;3.88;;;;;;;14.88;49.16;99865.19;5036573;28;20036;-65
2022/09/05 08:30:26;;;;;;;5.05;2.50;;;;;;;16.58;44.99;99875.94;5036768;28;20471;-66
2022/09/05 08:33:04;;;;;;;7.70;3.30;;;;;;;17.74;41.59;99866.59;5036512;28;20040;-66
2022/09/05 08:35:33;;;;;;;3.97;2.83;;;;;;;18.35;40.14;99860.53;5036397;28;20040;-66
2022/09/05 08:37:59;;;;;;;7.03;2.75;;;;;;;18.50;39.01;99858.16;5036951;28;20040;-66
2022/09/05 08:40:27;;;;;;;3.00;2.25;;;;;;;18.55;38.51;99850.41;5032909;28;20075;-67
2022/09/05 08:43:30;;;;;;;2.97;2.55;;;;;;;18.61;38.36;99857.09;4999929;28;20048;-65
2022/09/05 08:45:57;;;;;;;4.93;2.60;;;;;;;18.11;38.61;99854.88;5008842;28;20055;-67
2022/09/05 08:48:34;;;;;;;4.65;2.00;;;;;;;17.77;38.92;99851.97;5000444;28;20051;-67
2022/09/05 08:51:08;;;;;;;4.75;2.80;;;;;;;17.17;39.95;99856.00;5020321;28;20529;-68
2022/09/05 08:54:00;;;;;;;5.32;2.88;;;;;;;16.92;40.93;99860.22;5020884;28;20110;-66
2022/09/05 08:56:50;;;;;;;4.13;2.70;;;;;;;16.49;41.61;99864.16;5018057;28;20043;-67
2022/09/05 08:59:33;;;;;;;2.72;2.22;;;;;;;16.15;41.93;99855.63;5027683;28;20114;-67
2022/09/05 09:02:17;;;;;;;2.13;1.92;;;;;;;16.03;42.48;99855.94;4997118;28;20056;-67
2022/09/05 09:05:19;;;;;;;5.40;2.85;;;;;;;15.76;43.03;99860.09;5014750;28;20558;-74
2022/09/05 09:07:51;;;;;;;6.38;2.70;;;;;;;15.47;43.45;99859.97;4997287;28;20041;-67
2022/09/05 09:10:53;;;;;;;2.13;1.95;;;;;;;15.25;43.59;99854.78;5022065;28;20041;-68
2022/09/05 09:13:24;;;;;;;4.97;2.90;;;;;;;14.85;44.46;99857.38;4999594;28;20056;-67
2022/09/05 09:16:05;;;;;;;6.35;2.25;;;;;;;14.68;44.65;99847.22;4999662;28;20522;-68
2022/09/05 09:18:43;;;;;;;8.77;2.28;;;;;;;14.40;43.86;99846.91;5016485;28;20052;-68
2022/09/05 09:21:29;;;;;;;3.22;1.95;;;;;;;14.33;44.93;99852.88;5032988;28;20048;-67
2022/09/05 09:24:08;;;;;;;5.30;1.95;;;;;;;14.28;44.84;99855.09;4999979;28;20129;-68
2022/09/05 09:27:16;;;;;;;2.05;1.85;;;;;;;14.41;44.90;99840.56;5040161;28;20520;-68
2022/09/05 09:29:42;;;;;;;3.10;2.03;;;;;;;14.47;44.31;99841.84;4964097;28;20065;-67
2022/09/05 09:32:13;;;;;;;5.55;2.22;;;;;;;14.71;44.00;99842.47;4962095;28;20405;-68
2022/09/05 09:34:37;;;;;;;9.60;3.83;;;;;;;14.90;43.96;99834.53;4953632;28;20057;-67
2022/09/05 09:37:30;;;;;;;9.93;2.20;;;;;;;15.19;43.41;99842.75;4966885;28;20042;-67
2022/09/05 09:40:08;;;;;;;6.70;2.83;;;;;;;15.23;43.37;99832.59;4952955;28;20069;-68
2022/09/05 09:42:44;;;;;;;11.98;2.28;;;;;;;15.38;43.57;99828.53;4937504;28;20553;-68
2022/09/05 09:45:20;;;;;;;2.88;2.17;;;;;;;15.40;43.40;99831.94;4954465;28;20056;-67
2022/09/05 09:48:00;;;;;;;5.45;2.67;;;;;;;15.42;43.41;99831.81;4957138;28;20345;-68
2022/09/05 09:50:49;;;;;;;4.85;2.63;;;;;;;15.34;43.79;99827.13;4956838;28;20057;-68
2022/09/05 09:53:32;;;;;;;5.38;3.03;;;;;;;15.23;43.73;99830.75;4940257;28;20104;-68
2022/09/05 09:55:59;;;;;;;5.78;2.25;;;;;;;15.00;44.20;99839.97;4956623;28;20053;-68
2022/09/05 09:58:51;;;;;;;5.22;2.45;;;;;;;14.90;44.73;99826.47;4956170;28;20129;-68
2022/09/05 10:01:53;;;;;;;4.43;2.15;;;;;;;14.66;45.09;99828.59;4975856;28;20053;-67
2022/09/05 10:04:49;;;;;;;7.65;1.98;;;;;;;14.37;46.40;99835.53;4960387;28;20041;-73
2022/09/05 10:07:43;;;;;;;17.67;3.75;;;;;;;14.14;46.73;99829.41;5020570;28;20094;-73
2022/09/05 10:10:14;;;;;;;26.50;5.80;;;;;;;13.94;47.59;99831.06;5003523;28;20040;-73
2022/09/05 10:13:03;;;;;;;8.95;2.67;;;;;;;14.07;48.03;99828.22;5003301;28;20052;-67
2022/09/05 10:16:04;;;;;;;27.08;4.45;;;;;;;14.21;47.46;99825.25;5003843;28;20044;-74
2022/09/05 10:18:53;;;;;;;43.47;7.22;;;;;;;14.26;47.07;99825.72;4988943;28;20053;-68
2022/09/05 10:22:00;;;;;;;3.10;2.15;;;;;;;14.33;47.20;99826.91;5037221;28;20090;-68
2022/09/05 10:24:53;;;;;;;6.32;3.13;;;;;;;14.28;47.14;99822.91;4939213;28;20050;-68
2022/09/05 10:27:26;;;;;;;16.27;3.33;;;;;;;14.03;47.85;99816.91;4940403;28;20121;-69
2022/09/05 10:30:00;;;;;;;10.77;3.73;;;;;;;13.89;47.87;99825.22;4938974;28;20058;-70
2022/09/05 10:33:03;;;;;;;5.75;2.53;;;;;;;13.77;48.91;99820.88;4955577;28;20046;-68
2022/09/05 10:35:38;;;;;;;6.28;2.22;;;;;;;13.59;49.76;99817.88;4955474;28;20073;-67
2022/09/05 10:38:10;;;;;;;5.75;2.70;;;;;;;13.51;50.16;99825.69;4956136;28;20138;-67
2022/09/05 10:40:38;;;;;;;3.47;2.55;;;;;;;13.53;49.95;99831.78;4956174;28;20070;-67
2022/09/05 10:43:09;;;;;;;12.57;3.47;;;;;;;13.64;50.01;99828.22;4939809;28;20077;-66
2022/09/05 10:46:10;;;;;;;3.38;2.17;;;;;;;13.83;50.26;99817.69;4939616;28;20197;-68
2022/09/05 10:48:51;;;;;;;5.70;2.85;;;;;;;13.97;49.64;99816.56;4865448;29;20067;-72
2022/09/05 10:51:26;;;;;;;6.28;2.70;;;;;;;14.23;49.13;99811.69;4877061;29;20063;-71
2022/09/05 10:54:18;;;;;;;2.05;1.90;;;;;;;14.53;48.14;99809.16;4886742;29;20103;-72
2022/09/05 10:56:48;;;;;;;2.08;1.90;;;;;;;14.75;47.91;99806.34;4893015;29;20199;-73
2022/09/05 10:59:30;;;;;;;5.10;2.22;;;;;;;15.08;47.26;99801.69;4883407;29;20590;-74
2022/09/05 11:02:13;;;;;;;2.72;1.80;;;;;;;15.37;46.66;99808.03;4929795;28;20058;-73
2022/09/05 11:04:48;;;;;;;4.85;1.95;;;;;;;15.66;45.71;99797.41;4937619;28;20054;-71
2022/09/05 11:07:17;;;;;;;5.25;1.80;;;;;;;15.94;45.04;99796.59;4938167;28;20051;-72
2022/09/05 11:10:06;;;;;;;6.18;2.03;;;;;;;16.27;44.79;99789.09;4921956;28;20105;-74
2022/09/05 11:12:46;;;;;;;2.75;1.75;;;;;;;16.33;44.56;99789.41;4938095;28;20533;-73
2022/09/05 11:15:41;;;;;;;4.40;2.20;;;;;;;16.12;44.58;99790.53;4938265;28;20042;-70
2022/09/05 11:18:18;;;;;;;7.22;2.55;;;;;;;15.67;46.42;99798.28;4920847;28;20047;-73
2022/09/05 11:21:15;;;;;;;17.60;3.45;;;;;;;15.10;49.00;99807.78;4920875;28;20429;-73
2022/09/05 11:23:45;;;;;;;5.28;2.17;;;;;;;14.56;51.60;99798.16;4934653;28;20124;-74
2022/09/05 11:26:24;;;;;;;35.45;4.35;;;;;;;14.23;54.24;99790.25;4944157;28;20602;-74
2022/09/05 11:28:55;;;;;;;2.72;2.17;;;;;;;13.95;56.00;99799.75;4976829;28;20147;-75
2022/09/05 11:31:28;;;;;;;3.78;1.92;;;;;;;13.74;56.41;99794.34;4978777;28;20588;-74
2022/09/05 11:34:08;;;;;;;2.50;1.73;;;;;;;13.75;57.01;99796.06;4987817;28;20087;-75
2022/09/05 11:36:48;;;;;;;2.63;1.92;;;;;;;13.77;57.66;99799.44;4977462;28;20534;-73
2022/09/05 11:39:32;;;;;;;3.83;2.05;;;;;;;13.98;57.78;99792.31;4977981;28;20057;-76
2022/09/05 11:42:21;;;;;;;1.77;1.63;;;;;;;14.14;57.57;99798.09;4978194;28;20045;-77
2022/09/05 11:44:53;;;;;;;3.08;2.70;;;;;;;14.30;56.29;99786.94;4963006;28;20045;-77
2022/09/05 11:48:05;;;;;;;3.13;1.77;;;;;;;14.33;56.30;99789.38;4994078;28;20045;-73
2022/09/05 11:50:42;;;;;;;7.60;2.40;;;;;;;13.96;57.72;99788.06;4923141;28;20579;-75
2022/09/05 11:53:09;;;;;;;4.28;2.15;;;;;;;13.55;58.36;99792.28;4939564;28;20089;-75
2022/09/05 11:55:51;;;;;;;5.47;2.60;;;;;;;13.37;59.51;99789.28;4955229;28;20049;-71
2022/09/05 11:58:41;;;;;;;5.60;2.20;;;;;;;13.15;60.68;99788.47;4939249;28;20058;-71
2022/09/05 12:01:30;;;;;;;2.88;2.38;;;;;;;13.13;61.40;99788.53;4956829;28;20057;-78
2022/09/05 12:04:16;;;;;;;3.63;2.17;;;;;;;13.22;62.50;99784.31;4968693;28;20049;-74
2022/09/05 12:06:55;;;;;;;7.13;1.85;;;;;;;13.55;62.59;99781.59;4994628;28;20408;-75
2022/09/05 12:09:20;;;;;;;5.20;2.85;;;;;;;13.80;61.46;99770.56;4960980;28;20104;-75
2022/09/05 12:12:36;;;;;;;6.88;2.97;;;;;;;14.17;60.70;99765.66;4961899;28;20081;-76
2022/09/05 12:15:20;;;;;;;4.10;1.83;;;;;;;14.33;59.99;99772.44;4918607;29;20090;-74
2022/09/05 12:18:06;;;;;;;2.10;1.83;;;;;;;14.50;58.25;99761.13;4885424;29;20133;-75
2022/09/05 12:20:43;;;;;;;4.03;2.20;;;;;;;14.60;58.28;99756.66;4916609;29;20104;-75
2022/09/05 12:23:31;;;;;;;3.40;2.30;;;;;;;14.69;58.26;99761.22;4917249;28;20102;-76
2022/09/05 12:26:14;;;;;;;3.75;2.65;;;;;;;14.84;58.25;99764.41;4919657;28;20053;-75
2022/09/05 12:28:49;;;;;;;4.70;2.00;;;;;;;14.82;57.44;99755.66;4935483;28;20051;-75
2022/09/05 12:31:29;;;;;;;3.50;2.22;;;;;;;14.73;56.70;99751.09;4919008;28;20175;-75
2022/09/05 12:33:55;;;;;;;3.50;2.35;;;;;;;14.47;57.81;99751.50;4919147;28;20537;-75
2022/09/05 12:36:43;;;;;;;3.65;1.95;;;;;;;14.27;58.74;99746.97;4935204;28;20046;-74
2022/09/05 12:39:33;;;;;;;2.25;1.95;;;;;;;13.86;59.48;99746.94;4934845;28;20058;-75
2022/09/05 12:42:24;;;;;;;5.13;2.55;;;;;;;13.51;61.21;99739.97;4935658;28;20604;-75
2022/09/05 12:45:12;;;;;;;2.83;2.47;;;;;;;13.31;62.04;99738.94;4935233;28;20062;-74